Time;durP1;ratioP1;P1;durP2;ratioP2;P2;SDS_P1;SDS_P2;PMS_P1;PMS_P2;Temp;Humidity;BMP_temperature;BMP_pressure;BME280_temperature;BME280_humidity;BME280_pressure;Samples;Min_cycle;Max_cycle;Signal;HPM_P1;HPM_P2
2022/07/02 00:01:48;;;;;;;;;8.00;7.00;;;;;;;;5291424;28;8782;-71
2022/07/02 00:04:20;;;;;;;;;6.60;6.00;;;;;;;;5256340;28;9531;-71
2022/07/02 00:06:52;;;;;;;;;7.40;6.00;;;;;;;;5289514;27;8820;-72
2022/07/02 00:09:24;;;;;;;;;4.75;4.50;;;;;;;;5294708;27;8841;-72
2022/07/02 00:11:59;;;;;;;;;5.60;4.00;;;;;;;;5278360;28;8801;-72
2022/07/02 00:14:31;;;;;;;;;4.25;4.00;;;;;;;;5274177;28;8905;-72
2022/07/02 00:17:03;;;;;;;;;6.00;5.00;;;;;;;;5291158;28;8750;-72
2022/07/02 00:19:35;;;;;;;;;6.75;6.75;;;;;;;;5256254;28;8750;-72
2022/07/02 00:22:06;;;;;;;;;8.80;7.20;;;;;;;;5274830;27;8859;-73
2022/07/02 00:24:40;;;;;;;;;5.60;4.80;;;;;;;;5256053;28;8766;-71
2022/07/02 00:27:13;;;;;;;;;5.25;4.75;;;;;;;;5272536;28;8777;-72
2022/07/02 00:29:48;;;;;;;;;8.00;7.00;;;;;;;;5259827;27;8922;-72
2022/07/02 00:32:19;;;;;;;;;5.50;5.50;;;;;;;;5276898;27;8764;-72
2022/07/02 00:34:50;;;;;;;;;5.25;4.50;;;;;;;;5276974;27;8790;-72
2022/07/02 00:37:21;;;;;;;;;4.00;3.75;;;;;;;;5276768;27;8910;-72
2022/07/02 00:39:54;;;;;;;;;6.00;5.33;;;;;;;;5311172;27;8907;-73
2022/07/02 00:42:26;;;;;;;;;6.60;6.60;;;;;;;;5311936;27;9280;-72
2022/07/02 00:44:57;;;;;;;;;5.75;5.25;;;;;;;;5276318;27;8842;-72
2022/07/02 00:47:29;;;;;;;;;5.75;5.75;;;;;;;;5293497;27;8756;-72
2022/07/02 00:50:03;;;;;;;;;7.20;4.80;;;;;;;;5261454;28;8764;-72
2022/07/02 00:52:34;;;;;;;;;6.00;6.00;;;;;;;;5234654;28;9519;-72
2022/07/02 00:55:05;;;;;;;;;5.00;5.00;;;;;;;;5251254;28;9486;-72
2022/07/02 00:57:36;;;;;;;;;6.00;6.00;;;;;;;;5251302;28;8764;-72
2022/07/02 01:00:08;;;;;;;;;6.50;6.00;;;;;;;;5251657;28;8776;-72
2022/07/02 01:02:42;;;;;;;;;6.50;6.50;;;;;;;;5251034;28;8776;-71
2022/07/02 01:05:15;;;;;;;;;4.75;3.75;;;;;;;;5255014;28;8784;-72
2022/07/02 01:10:16;;;;;;;;;5.75;5.50;;;;;;;;5271908;28;8778;-71
2022/07/02 01:10:52;;;;;;;;;5.75;5.25;;;;;;;;5252457;28;8796;-71
2022/07/02 01:13:24;;;;;;;;;4.00;3.75;;;;;;;;5258069;27;8791;-71
2022/07/02 01:15:55;;;;;;;;;6.00;6.00;;;;;;;;5275823;27;8891;-71
2022/07/02 01:18:26;;;;;;;;;6.50;6.50;;;;;;;;5292844;27;8772;-71
2022/07/02 01:20:57;;;;;;;;;6.50;6.00;;;;;;;;5308957;27;8792;-71
2022/07/02 01:23:28;;;;;;;;;7.75;6.50;;;;;;;;5292644;27;8775;-70
2022/07/02 01:25:59;;;;;;;;;5.50;4.75;;;;;;;;5275740;27;8810;-69
2022/07/02 01:28:30;;;;;;;;;4.00;4.00;;;;;;;;5287494;28;8809;-70
2022/07/02 01:31:02;;;;;;;;;6.25;3.25;;;;;;;;5254944;28;8789;-69
2022/07/02 01:33:32;;;;;;;;;7.75;7.25;;;;;;;;5289604;28;8801;-70
2022/07/02 01:36:03;;;;;;;;;5.00;4.00;;;;;;;;5254666;28;8774;-70
2022/07/02 01:38:34;;;;;;;;;6.00;5.75;;;;;;;;5271350;28;8802;-69
2022/07/02 01:43:55;;;;;;;;;7.50;7.00;;;;;;;;5299402;27;8798;-70
2022/07/02 01:46:26;;;;;;;;;5.75;5.00;;;;;;;;5290696;27;8803;-74
2022/07/02 01:48:57;;;;;;;;;9.33;8.00;;;;;;;;5272475;27;8801;-72
2022/07/02 01:51:28;;;;;;;;;11.67;10.67;;;;;;;;5273429;27;11040;-74
2022/07/02 01:53:59;;;;;;;;;10.50;9.75;;;;;;;;5290719;27;9810;-72
2022/07/02 01:56:33;;;;;;;;;4.00;3.00;;;;;;;;5290999;27;9526;-73
2022/07/02 01:59:05;;;;;;;;;7.25;7.25;;;;;;;;5307656;27;8779;-72
2022/07/02 02:01:36;;;;;;;;;9.50;8.00;;;;;;;;5253715;28;8773;-71
2022/07/02 02:04:07;;;;;;;;;11.50;10.00;;;;;;;;5234540;28;8796;-72
2022/07/02 02:06:39;;;;;;;;;11.00;9.75;;;;;;;;5286286;27;8786;-72
2022/07/02 02:09:10;;;;;;;;;8.00;8.00;;;;;;;;5270591;28;8932;-71
2022/07/02 02:11:41;;;;;;;;;7.75;7.00;;;;;;;;5270291;28;8920;-71
2022/07/02 02:14:31;;;;;;;;;6.50;6.50;;;;;;;;5271547;28;8782;-71
2022/07/02 02:17:02;;;;;;;;;8.25;7.50;;;;;;;;5304497;27;8781;-71
2022/07/02 02:19:33;;;;;;;;;4.75;4.75;;;;;;;;5285491;28;9484;-69
2022/07/02 02:22:04;;;;;;;;;4.67;4.67;;;;;;;;5304096;27;8777;-70
2022/07/02 02:24:35;;;;;;;;;6.00;5.00;;;;;;;;5288105;28;8884;-70
2022/07/02 02:27:06;;;;;;;;;7.00;6.50;;;;;;;;5288231;27;8944;-70
2022/07/02 02:29:39;;;;;;;;;7.50;7.50;;;;;;;;5253949;28;8758;-70
2022/07/02 02:32:10;;;;;;;;;7.50;5.75;;;;;;;;5253127;28;8801;-70
2022/07/02 02:34:41;;;;;;;;;6.00;5.50;;;;;;;;5287301;27;8855;-70
2022/07/02 02:37:13;;;;;;;;;9.50;8.25;;;;;;;;5270100;28;8785;-71
2022/07/02 02:39:44;;;;;;;;;12.00;9.75;;;;;;;;5288126;28;8770;-70
2022/07/02 02:42:14;;;;;;;;;10.33;10.00;;;;;;;;5270076;28;8780;-71
2022/07/02 02:44:45;;;;;;;;;12.00;9.00;;;;;;;;5306471;27;10413;-71
2022/07/02 02:47:18;;;;;;;;;10.00;9.00;;;;;;;;5309262;27;11151;-71
2022/07/02 02:49:49;;;;;;;;;8.25;6.50;;;;;;;;5290981;27;9492;-70
2022/07/02 02:52:20;;;;;;;;;6.50;6.50;;;;;;;;5309217;27;8780;-71
2022/07/02 02:54:51;;;;;;;;;8.50;7.00;;;;;;;;5291386;27;9463;-70
2022/07/02 02:57:41;;;;;;;;;7.25;6.50;;;;;;;;5308642;27;8898;-71
2022/07/02 03:00:13;;;;;;;;;6.75;5.75;;;;;;;;5280448;28;9010;-70
2022/07/02 03:02:44;;;;;;;;;8.00;7.00;;;;;;;;5270226;28;8797;-70
2022/07/02 03:05:15;;;;;;;;;6.67;6.00;;;;;;;;5291889;28;8750;-69
2022/07/02 03:07:46;;;;;;;;;6.00;6.00;;;;;;;;5292240;28;11335;-71
2022/07/02 03:10:35;;;;;;;;;9.00;7.00;;;;;;;;5292728;28;9439;-70
2022/07/02 03:13:06;;;;;;;;;7.00;6.25;;;;;;;;5293196;27;8913;-70
2022/07/02 03:15:37;;;;;;;;;6.33;5.67;;;;;;;;5293179;27;8780;-71
2022/07/02 03:18:26;;;;;;;;;3.75;3.75;;;;;;;;5276596;28;9298;-70
2022/07/02 03:20:57;;;;;;;;;6.25;6.25;;;;;;;;5292231;28;8789;-70
2022/07/02 03:23:28;;;;;;;;;4.50;4.50;;;;;;;;5306355;27;8792;-70
2022/07/02 03:25:59;;;;;;;;;5.00;5.00;;;;;;;;5313430;27;8780;-70
2022/07/02 03:28:30;;;;;;;;;7.25;7.25;;;;;;;;5289298;27;8799;-71
2022/07/02 03:31:01;;;;;;;;;5.75;5.75;;;;;;;;5277883;27;8797;-70
2022/07/02 03:33:32;;;;;;;;;5.25;5.00;;;;;;;;5261451;27;8811;-70
2022/07/02 03:36:21;;;;;;;;;4.50;4.50;;;;;;;;5294874;27;8764;-70
2022/07/02 03:38:52;;;;;;;;;1.00;1.00;;;;;;;;5277788;27;8815;-70
2022/07/02 03:41:41;;;;;;;;;5.00;5.00;;;;;;;;5309656;27;11343;-70
2022/07/02 03:44:12;;;;;;;;;6.50;6.50;;;;;;;;5291579;28;9546;-71
2022/07/02 03:46:43;;;;;;;;;7.00;7.00;;;;;;;;5256664;28;8782;-71
2022/07/02 03:49:32;;;;;;;;;5.50;5.00;;;;;;;;5291322;28;11427;-72
2022/07/02 03:52:04;;;;;;;;;5.25;5.25;;;;;;;;5291950;28;8790;-70
2022/07/02 03:54:35;;;;;;;;;7.25;6.00;;;;;;;;5291634;28;8777;-70
2022/07/02 03:57:24;;;;;;;;;8.00;7.75;;;;;;;;5302717;27;8799;-70
2022/07/02 03:59:55;;;;;;;;;6.00;6.00;;;;;;;;5286272;28;8804;-71
2022/07/02 04:02:26;;;;;;;;;10.67;6.67;;;;;;;;5273191;28;8782;-71
2022/07/02 04:04:57;;;;;;;;;4.25;4.25;;;;;;;;5291363;28;8773;-70
2022/07/02 04:07:28;;;;;;;;;6.50;6.50;;;;;;;;5291283;28;8781;-70
2022/07/02 04:10:00;;;;;;;;;6.75;6.00;;;;;;;;5272816;28;8781;-71
2022/07/02 04:12:30;;;;;;;;;7.25;5.50;;;;;;;;5272403;28;8809;-71
2022/07/02 04:15:20;;;;;;;;;7.00;5.00;;;;;;;;5276560;28;8794;-70
2022/07/02 04:17:51;;;;;;;;;4.00;4.00;;;;;;;;5254834;28;8793;-70
2022/07/02 04:20:40;;;;;;;;;4.75;4.00;;;;;;;;5273048;27;8808;-70
2022/07/02 04:23:11;;;;;;;;;5.25;4.50;;;;;;;;5310830;27;8811;-70
2022/07/02 04:25:42;;;;;;;;;6.00;6.00;;;;;;;;5292723;27;8791;-71
2022/07/02 04:28:13;;;;;;;;;5.50;5.50;;;;;;;;5275624;27;8842;-73
2022/07/02 04:30:44;;;;;;;;;5.25;4.75;;;;;;;;5310591;27;8780;-69
2022/07/02 04:33:16;;;;;;;;;3.75;3.75;;;;;;;;5275699;27;8816;-72
2022/07/02 04:35:47;;;;;;;;;3.00;3.00;;;;;;;;5287446;28;8812;-70
2022/07/02 04:38:18;;;;;;;;;3.00;3.00;;;;;;;;5255710;28;8931;-71
2022/07/02 04:40:49;;;;;;;;;1.50;1.50;;;;;;;;5267608;28;8918;-70
2022/07/02 04:43:20;;;;;;;;;2.25;2.25;;;;;;;;5281286;27;8930;-69
2022/07/02 04:45:51;;;;;;;;;2.67;2.67;;;;;;;;5293572;27;8772;-70
2022/07/02 04:48:22;;;;;;;;;3.00;3.00;;;;;;;;5256203;28;11358;-72
2022/07/02 04:50:53;;;;;;;;;4.00;4.00;;;;;;;;5235031;28;10873;-71
2022/07/02 04:53:24;;;;;;;;;4.00;3.75;;;;;;;;5276445;28;11536;-71
2022/07/02 04:55:55;;;;;;;;;3.00;3.00;;;;;;;;5249694;28;8776;-73
2022/07/02 04:58:26;;;;;;;;;7.50;6.50;;;;;;;;5302868;27;8796;-72
2022/07/02 05:00:57;;;;;;;;;5.75;5.00;;;;;;;;5279379;28;8877;-71
2022/07/02 05:03:28;;;;;;;;;3.00;3.00;;;;;;;;5287662;28;8782;-72
2022/07/02 05:06:00;;;;;;;;;4.00;4.00;;;;;;;;5270821;28;8770;-71
2022/07/02 05:08:31;;;;;;;;;6.00;5.25;;;;;;;;5270308;28;8822;-72
2022/07/02 05:11:20;;;;;;;;;2.00;2.00;;;;;;;;5272846;27;9004;-72
2022/07/02 05:13:51;;;;;;;;;3.50;3.50;;;;;;;;5268780;28;8840;-71
2022/07/02 05:16:22;;;;;;;;;3.33;3.33;;;;;;;;5252718;28;8805;-74
2022/07/02 05:19:11;;;;;;;;;1.00;1.00;;;;;;;;5286951;27;9402;-73
2022/07/02 05:21:43;;;;;;;;;3.33;3.33;;;;;;;;5273425;27;8847;-71
2022/07/02 05:24:15;;;;;;;;;2.75;2.75;;;;;;;;5290666;27;9936;-72
2022/07/02 05:27:05;;;;;;;;;3.00;3.00;;;;;;;;5308119;27;8803;-72
2022/07/02 05:29:36;;;;;;;;;3.25;3.25;;;;;;;;5274049;27;9517;-72
2022/07/02 05:32:07;;;;;;;;;3.00;3.00;;;;;;;;5292925;27;8829;-72
2022/07/02 05:34:38;;;;;;;;;3.00;3.00;;;;;;;;5275262;27;8980;-69
2022/07/02 05:37:09;;;;;;;;;2.75;2.75;;;;;;;;5266037;27;8797;-68
2022/07/02 05:39:40;;;;;;;;;3.00;3.00;;;;;;;;5286849;27;8844;-72
2022/07/02 05:42:11;;;;;;;;;4.00;4.00;;;;;;;;5253844;28;11304;-72
2022/07/02 05:44:42;;;;;;;;;2.75;2.75;;;;;;;;5254189;28;8792;-72
2022/07/02 05:47:13;;;;;;;;;4.00;4.00;;;;;;;;5288250;28;8777;-73
2022/07/02 05:50:03;;;;;;;;;2.00;2.00;;;;;;;;5272980;28;8993;-72
2022/07/02 05:52:37;;;;;;;;;3.75;3.00;;;;;;;;5288060;28;8813;-73
2022/07/02 05:55:08;;;;;;;;;3.00;3.00;;;;;;;;5288535;28;8813;-74
2022/07/02 05:57:39;;;;;;;;;4.00;4.00;;;;;;;;5270203;28;9511;-73
2022/07/02 06:00:28;;;;;;;;;2.25;2.25;;;;;;;;5255913;28;8761;-72
2022/07/02 06:02:59;;;;;;;;;3.67;3.67;;;;;;;;5270907;28;8782;-72
2022/07/02 06:08:39;;;;;;;;;4.75;4.75;;;;;;;;5289354;28;9960;-71
2022/07/02 06:11:11;;;;;;;;;3.75;3.75;;;;;;;;5270916;28;8777;-72
2022/07/02 06:13:42;;;;;;;;;5.00;5.00;;;;;;;;5288975;28;8782;-72
2022/07/02 06:16:13;;;;;;;;;2.50;2.50;;;;;;;;5270795;28;8786;-72
2022/07/02 06:18:46;;;;;;;;;4.00;4.00;;;;;;;;5253828;28;8786;-71
2022/07/02 06:21:17;;;;;;;;;4.00;4.00;;;;;;;;5270635;28;8769;-72
2022/07/02 06:23:48;;;;;;;;;3.00;3.00;;;;;;;;5288578;28;8778;-71
2022/07/02 06:26:19;;;;;;;;;4.00;4.00;;;;;;;;5288586;28;8759;-72
2022/07/02 06:28:50;;;;;;;;;3.00;3.00;;;;;;;;5270458;28;8797;-72
2022/07/02 06:31:21;;;;;;;;;2.50;2.50;;;;;;;;5270280;28;8786;-73
2022/07/02 06:33:52;;;;;;;;;3.75;3.75;;;;;;;;5253566;28;8793;-73
2022/07/02 06:36:24;;;;;;;;;4.33;4.33;;;;;;;;5270203;28;8878;-72
2022/07/02 06:38:55;;;;;;;;;3.25;3.25;;;;;;;;5252524;28;12106;-72
2022/07/02 06:44:16;;;;;;;;;4.00;4.00;;;;;;;;5270340;28;10650;-72
2022/07/02 06:46:47;;;;;;;;;2.00;2.00;;;;;;;;5270071;28;8805;-71
2022/07/02 06:49:36;;;;;;;;;3.50;3.50;;;;;;;;5270367;28;8785;-72
2022/07/02 06:52:08;;;;;;;;;3.25;3.25;;;;;;;;5253531;28;8794;-72
2022/07/02 06:54:39;;;;;;;;;0.25;0.25;;;;;;;;5270306;28;9508;-72
2022/07/02 06:57:11;;;;;;;;;3.00;3.00;;;;;;;;5253405;28;9496;-72
2022/07/02 06:59:42;;;;;;;;;1.00;1.00;;;;;;;;5254610;28;8745;-73
2022/07/02 07:02:13;;;;;;;;;1.50;1.50;;;;;;;;5264489;28;8809;-73
2022/07/02 07:04:45;;;;;;;;;2.00;2.00;;;;;;;;5293495;28;8829;-73
2022/07/02 07:07:17;;;;;;;;;1.50;1.50;;;;;;;;5274912;28;8782;-72
2022/07/02 07:10:06;;;;;;;;;2.75;2.75;;;;;;;;5260992;28;8788;-71
2022/07/02 07:12:37;;;;;;;;;3.00;3.00;;;;;;;;5287904;28;8794;-72
2022/07/02 07:15:09;;;;;;;;;2.50;2.50;;;;;;;;5253100;28;9513;-72
2022/07/02 07:17:40;;;;;;;;;4.00;4.00;;;;;;;;5287839;28;8774;-71
2022/07/02 07:20:16;;;;;;;;;1.50;1.50;;;;;;;;5270020;28;9499;-72
2022/07/02 07:22:47;;;;;;;;;2.75;2.75;;;;;;;;5269968;28;8774;-71
2022/07/02 07:25:18;;;;;;;;;0.75;0.75;;;;;;;;5269859;28;8774;-72
2022/07/02 07:28:08;;;;;;;;;0.25;0.25;;;;;;;;5272590;28;8798;-73
2022/07/02 07:30:57;;;;;;;;;1.00;1.00;;;;;;;;5270000;28;8750;-72
2022/07/02 07:33:37;;;;;;;;;2.00;2.00;;;;;;;;5269896;28;8794;-71
2022/07/02 07:36:27;;;;;;;;;1.50;1.50;;;;;;;;5269877;28;9519;-72
2022/07/02 07:38:58;;;;;;;;;1.25;1.25;;;;;;;;5269733;28;9531;-72
2022/07/02 07:41:47;;;;;;;;;1.00;1.00;;;;;;;;5287852;28;8869;-71
2022/07/02 07:44:18;;;;;;;;;4.00;4.00;;;;;;;;5252742;28;9603;-71
2022/07/02 07:46:49;;;;;;;;;2.00;2.00;;;;;;;;5269653;28;8831;-72
2022/07/02 07:49:19;;;;;;;;;1.33;1.33;;;;;;;;5252985;28;8778;-72
2022/07/02 07:52:26;;;;;;;;;2.00;2.00;;;;;;;;5291502;28;9063;-72
2022/07/02 07:54:58;;;;;;;;;1.25;1.25;;;;;;;;5185668;28;8791;-72
2022/07/02 07:57:47;;;;;;;;;1.75;1.75;;;;;;;;5185534;28;8780;-72
2022/07/02 08:00:18;;;;;;;;;2.00;2.00;;;;;;;;5185659;28;8927;-71
2022/07/02 08:03:08;;;;;;;;;4.75;4.75;;;;;;;;5223513;28;8796;-72
2022/07/02 08:05:39;;;;;;;;;2.00;2.00;;;;;;;;5273229;28;9507;-73
2022/07/02 08:08:10;;;;;;;;;2.25;2.25;;;;;;;;5273235;28;8808;-72
2022/07/02 08:10:41;;;;;;;;;1.50;1.50;;;;;;;;5256433;28;8770;-73
2022/07/02 08:13:15;;;;;;;;;1.25;1.25;;;;;;;;5239475;28;9599;-72
2022/07/02 08:15:47;;;;;;;;;2.00;2.00;;;;;;;;5239559;28;8770;-72
2022/07/02 08:18:18;;;;;;;;;2.50;2.50;;;;;;;;5273007;28;9536;-72
2022/07/02 08:21:07;;;;;;;;;2.25;2.25;;;;;;;;5273083;28;8766;-72
2022/07/02 08:23:41;;;;;;;;;2.75;2.75;;;;;;;;5273046;28;8786;-72
2022/07/02 08:26:12;;;;;;;;;4.25;4.25;;;;;;;;5290935;28;8758;-71
2022/07/02 08:28:43;;;;;;;;;2.25;2.25;;;;;;;;5268234;28;8868;-72
2022/07/02 08:31:14;;;;;;;;;2.50;2.50;;;;;;;;5268705;28;8813;-72
2022/07/02 08:33:45;;;;;;;;;2.50;2.50;;;;;;;;5268299;28;9536;-71
2022/07/02 08:36:16;;;;;;;;;2.00;2.00;;;;;;;;5269591;28;8786;-71
2022/07/02 08:39:05;;;;;;;;;2.75;2.75;;;;;;;;5269553;28;11486;-71
2022/07/02 08:41:36;;;;;;;;;2.33;2.33;;;;;;;;5268906;28;8750;-72
2022/07/02 08:44:26;;;;;;;;;2.75;2.75;;;;;;;;5268037;28;11434;-72
2022/07/02 08:46:57;;;;;;;;;2.00;2.00;;;;;;;;5269328;28;8774;-72
2022/07/02 08:49:30;;;;;;;;;3.00;3.00;;;;;;;;5251372;28;8793;-72
2022/07/02 08:52:03;;;;;;;;;2.50;2.00;;;;;;;;5234689;28;8871;-71
2022/07/02 08:54:34;;;;;;;;;2.00;2.00;;;;;;;;5234912;28;8952;-72
2022/07/02 08:57:07;;;;;;;;;2.50;2.50;;;;;;;;5268414;28;9587;-72
2022/07/02 08:59:38;;;;;;;;;1.25;1.25;;;;;;;;5268084;28;9508;-71
2022/07/02 09:02:13;;;;;;;;;3.00;3.00;;;;;;;;5266812;28;8802;-72
2022/07/02 09:05:08;;;;;;;;;2.25;2.25;;;;;;;;5268066;28;8778;-72
2022/07/02 09:07:40;;;;;;;;;1.50;1.50;;;;;;;;5269112;28;8797;-71
2022/07/02 09:10:11;;;;;;;;;2.50;2.50;;;;;;;;5268871;28;8805;-72
2022/07/02 09:12:42;;;;;;;;;2.25;2.25;;;;;;;;5268785;28;8802;-70
2022/07/02 09:15:14;;;;;;;;;2.25;2.25;;;;;;;;5250956;28;8802;-72
2022/07/02 09:17:45;;;;;;;;;3.25;3.25;;;;;;;;5250954;28;8766;-71
2022/07/02 09:20:16;;;;;;;;;1.50;1.50;;;;;;;;5250887;28;8964;-72
2022/07/02 09:22:49;;;;;;;;;3.00;3.00;;;;;;;;5233743;28;9026;-72
2022/07/02 09:25:40;;;;;;;;;2.75;2.75;;;;;;;;5268693;28;9535;-70
2022/07/02 09:28:12;;;;;;;;;4.50;4.50;;;;;;;;5278868;28;8922;-72
2022/07/02 09:31:03;;;;;;;;;4.00;4.00;;;;;;;;5289871;28;8766;-71
2022/07/02 09:33:36;;;;;;;;;0.75;0.75;;;;;;;;5271485;28;8808;-72
2022/07/02 09:36:26;;;;;;;;;3.00;3.00;;;;;;;;5274423;28;8830;-71
2022/07/02 09:39:25;;;;;;;;;2.25;2.25;;;;;;;;5257308;28;8881;-71
2022/07/02 09:41:57;;;;;;;;;3.00;3.00;;;;;;;;5271275;28;8774;-71
2022/07/02 09:44:29;;;;;;;;;5.25;5.25;;;;;;;;5237785;28;8839;-72
2022/07/02 09:47:00;;;;;;;;;2.00;2.00;;;;;;;;5271454;28;8830;-72
2022/07/02 09:49:31;;;;;;;;;2.33;2.33;;;;;;;;5289206;28;9528;-72
2022/07/02 09:52:01;;;;;;;;;3.33;3.33;;;;;;;;5254041;28;11364;-72
2022/07/02 09:54:32;;;;;;;;;4.00;4.00;;;;;;;;5254408;28;8812;-72
2022/07/02 09:57:21;;;;;;;;;2.75;2.75;;;;;;;;5271297;28;11479;-72
2022/07/02 09:59:53;;;;;;;;;0.00;0.00;;;;;;;;5289027;28;8924;-72
2022/07/02 10:02:25;;;;;;;;;1.25;1.25;;;;;;;;5289058;28;8836;-72
2022/07/02 10:04:56;;;;;;;;;1.00;1.00;;;;;;;;5237413;28;8968;-73
2022/07/02 10:07:46;;;;;;;;;2.75;2.75;;;;;;;;5289339;28;9496;-71
2022/07/02 10:10:19;;;;;;;;;4.00;4.00;;;;;;;;5237233;28;8782;-71
2022/07/02 10:12:50;;;;;;;;;2.00;2.00;;;;;;;;5288536;28;8817;-73
2022/07/02 10:15:23;;;;;;;;;2.00;2.00;;;;;;;;5237018;28;8762;-72
2022/07/02 10:18:13;;;;;;;;;4.75;4.75;;;;;;;;5270902;28;8908;-72
2022/07/02 10:20:44;;;;;;;;;5.00;5.00;;;;;;;;5288740;28;8929;-72
2022/07/02 10:26:50;;;;;;;;;6.00;5.50;;;;;;;;5259349;28;8784;-73
2022/07/02 10:29:21;;;;;;;;;2.00;2.00;;;;;;;;5253266;28;8794;-70
2022/07/02 10:32:10;;;;;;;;;3.00;3.00;;;;;;;;5270251;28;8774;-73
2022/07/02 10:35:09;;;;;;;;;1.75;1.75;;;;;;;;5256171;28;8808;-73
2022/07/02 10:37:41;;;;;;;;;3.75;3.75;;;;;;;;5236878;28;8782;-73
2022/07/02 10:40:18;;;;;;;;;7.00;7.00;;;;;;;;5236647;28;8777;-73
2022/07/02 10:42:50;;;;;;;;;5.00;5.00;;;;;;;;5237279;28;8770;-73
2022/07/02 10:45:22;;;;;;;;;5.25;5.25;;;;;;;;5253433;28;8866;-73
2022/07/02 10:47:54;;;;;;;;;3.50;3.50;;;;;;;;5253562;28;9508;-73
2022/07/02 10:50:37;;;;;;;;;10.00;10.00;;;;;;;;5288389;28;8770;-73
2022/07/02 10:53:13;;;;;;;;;3.75;3.75;;;;;;;;5270361;28;8920;-72
2022/07/02 10:55:55;;;;;;;;;3.00;3.00;;;;;;;;5237014;28;8802;-73
2022/07/02 10:58:45;;;;;;;;;3.00;3.00;;;;;;;;5272862;28;8806;-73
2022/07/02 11:01:22;;;;;;;;;0.75;0.75;;;;;;;;5270121;28;8796;-72
2022/07/02 11:04:01;;;;;;;;;3.25;3.25;;;;;;;;5253214;28;8788;-73
2022/07/02 11:06:33;;;;;;;;;5.00;5.00;;;;;;;;5288099;28;8762;-73
2022/07/02 11:09:05;;;;;;;;;4.00;4.00;;;;;;;;5270204;28;8822;-71
2022/07/02 11:11:37;;;;;;;;;8.00;8.00;;;;;;;;5287949;28;8778;-70
2022/07/02 11:14:12;;;;;;;;;9.00;9.00;;;;;;;;5288086;28;8821;-72
2022/07/02 11:16:46;;;;;;;;;25.25;24.25;;;;;;;;5253021;28;8830;-72
2022/07/02 11:19:20;;;;;;;;;16.25;16.25;;;;;;;;5287825;28;8770;-71
2022/07/02 11:21:55;;;;;;;;;5.00;5.00;;;;;;;;5269692;28;8920;-72
2022/07/02 11:24:27;;;;;;;;;7.25;7.25;;;;;;;;5288355;28;8776;-72
2022/07/02 11:26:59;;;;;;;;;4.00;4.00;;;;;;;;5240881;28;8789;-72
2022/07/02 11:29:30;;;;;;;;;5.75;5.75;;;;;;;;5232158;28;8800;-72
2022/07/02 11:32:01;;;;;;;;;4.00;4.00;;;;;;;;5232213;28;8808;-72
2022/07/02 11:34:32;;;;;;;;;10.50;10.50;;;;;;;;5249394;28;8800;-73
2022/07/02 11:37:03;;;;;;;;;4.50;4.50;;;;;;;;5232294;28;8873;-72
2022/07/02 11:39:34;;;;;;;;;12.67;12.67;;;;;;;;5248655;28;8800;-73
2022/07/02 11:42:05;;;;;;;;;3.67;3.67;;;;;;;;5232102;28;12152;-71
2022/07/02 11:44:36;;;;;;;;;4.25;4.25;;;;;;;;5250242;28;10717;-72
2022/07/02 11:47:06;;;;;;;;;12.00;12.00;;;;;;;;5248645;28;8977;-71
2022/07/02 11:49:37;;;;;;;;;8.00;8.00;;;;;;;;5250190;28;8841;-71
2022/07/02 11:52:08;;;;;;;;;72.00;55.50;;;;;;;;5249450;28;11461;-71
2022/07/02 11:54:57;;;;;;;;;15.00;15.00;;;;;;;;5234061;28;11499;-71
2022/07/02 11:57:35;;;;;;;;;7.50;7.50;;;;;;;;5248299;28;8791;-71
2022/07/02 12:00:33;;;;;;;;;5.50;5.50;;;;;;;;5249512;28;8769;-72
2022/07/02 12:03:10;;;;;;;;;7.75;6.50;;;;;;;;5231665;28;8944;-71
2022/07/02 12:05:51;;;;;;;;;5.75;5.00;;;;;;;;5249607;28;8823;-71
2022/07/02 12:08:22;;;;;;;;;7.25;6.75;;;;;;;;5215301;28;8830;-73
2022/07/02 12:10:53;;;;;;;;;7.75;7.50;;;;;;;;5248308;28;8777;-71
2022/07/02 12:13:28;;;;;;;;;8.50;7.50;;;;;;;;5215579;28;8808;-72
2022/07/02 12:15:59;;;;;;;;;5.75;5.00;;;;;;;;5230953;28;8793;-72
2022/07/02 12:18:32;;;;;;;;;6.00;6.00;;;;;;;;5249597;28;8800;-72
2022/07/02 12:21:08;;;;;;;;;6.25;6.00;;;;;;;;5247812;28;8880;-72
2022/07/02 12:23:48;;;;;;;;;7.50;7.50;;;;;;;;5247928;28;9535;-72
2022/07/02 12:26:22;;;;;;;;;7.50;6.00;;;;;;;;5214505;28;8780;-71
2022/07/02 12:31:49;;;;;;;;;6.75;6.25;;;;;;;;5268762;28;8909;-71
2022/07/02 12:34:42;;;;;;;;;7.75;7.75;;;;;;;;5268775;28;9480;-72
2022/07/02 12:37:24;;;;;;;;;6.00;6.00;;;;;;;;5250411;28;8770;-72
2022/07/02 12:40:22;;;;;;;;;8.50;8.50;;;;;;;;5252295;28;8809;-71
2022/07/02 12:43:02;;;;;;;;;8.75;8.25;;;;;;;;5265899;28;8804;-71
2022/07/02 12:45:51;;;;;;;;;11.50;11.00;;;;;;;;5254107;28;8790;-71
2022/07/02 12:48:22;;;;;;;;;13.00;12.00;;;;;;;;5268420;28;9500;-72
2022/07/02 12:51:12;;;;;;;;;9.50;9.50;;;;;;;;5268160;28;8789;-71
2022/07/02 12:53:43;;;;;;;;;36.20;32.40;;;;;;;;5268611;28;8871;-71
2022/07/02 12:56:14;;;;;;;;;30.25;28.75;;;;;;;;5268225;28;8810;-71
2022/07/02 12:58:45;;;;;;;;;15.00;12.67;;;;;;;;5268057;28;11454;-71
2022/07/02 13:01:16;;;;;;;;;12.25;12.00;;;;;;;;5269303;28;8789;-71
2022/07/02 13:03:47;;;;;;;;;11.00;10.75;;;;;;;;5267996;28;8793;-70
2022/07/02 13:06:18;;;;;;;;;9.25;9.25;;;;;;;;5251081;28;8798;-71
2022/07/02 13:09:07;;;;;;;;;8.50;8.50;;;;;;;;5268892;28;8806;-70
2022/07/02 13:11:38;;;;;;;;;10.00;10.00;;;;;;;;5267765;28;8835;-70
2022/07/02 13:14:10;;;;;;;;;9.00;8.00;;;;;;;;5267692;28;10031;-71
2022/07/02 13:16:41;;;;;;;;;9.50;9.50;;;;;;;;5268933;28;11402;-71
2022/07/02 13:19:11;;;;;;;;;11.33;11.00;;;;;;;;5251405;28;9485;-70
2022/07/02 13:21:42;;;;;;;;;11.00;10.33;;;;;;;;5267481;28;8789;-70
2022/07/02 13:24:31;;;;;;;;;8.00;7.75;;;;;;;;5267450;28;8859;-70
2022/07/02 13:27:03;;;;;;;;;9.33;9.00;;;;;;;;5267639;28;8778;-71
2022/07/02 13:29:34;;;;;;;;;13.25;12.00;;;;;;;;5237962;28;9098;-71
2022/07/02 13:32:05;;;;;;;;;15.50;15.50;;;;;;;;5289604;28;9602;-71
2022/07/02 13:34:36;;;;;;;;;19.50;17.50;;;;;;;;5289808;28;9512;-72
2022/07/02 13:37:07;;;;;;;;;16.67;14.33;;;;;;;;5254697;28;8762;-72
2022/07/02 13:39:38;;;;;;;;;16.00;15.33;;;;;;;;5271522;28;8769;-71
2022/07/02 13:42:09;;;;;;;;;15.50;13.75;;;;;;;;5289556;28;8788;-71
2022/07/02 13:44:40;;;;;;;;;20.75;19.00;;;;;;;;5289516;28;8758;-71
2022/07/02 13:47:11;;;;;;;;;25.25;24.00;;;;;;;;5288980;28;8838;-71
2022/07/02 13:50:00;;;;;;;;;34.60;27.40;;;;;;;;5256740;28;8788;-71
2022/07/02 13:52:31;;;;;;;;;29.80;28.80;;;;;;;;5289290;28;8805;-71
2022/07/02 13:55:02;;;;;;;;;19.00;18.50;;;;;;;;5254317;28;9503;-74
2022/07/02 13:57:33;;;;;;;;;22.80;21.80;;;;;;;;5254372;28;11516;-71
2022/07/02 14:00:06;;;;;;;;;20.00;19.00;;;;;;;;5289078;28;8821;-71
2022/07/02 14:02:44;;;;;;;;;21.25;20.75;;;;;;;;5289366;28;10688;-71
2022/07/02 14:05:15;;;;;;;;;19.75;18.75;;;;;;;;5270996;28;8926;-71
2022/07/02 14:07:46;;;;;;;;;22.00;21.67;;;;;;;;5270783;28;8937;-71
2022/07/02 14:10:17;;;;;;;;;21.50;21.00;;;;;;;;5270490;28;12205;-72
2022/07/02 14:13:06;;;;;;;;;21.60;21.40;;;;;;;;5271123;28;8810;-71
2022/07/02 14:15:38;;;;;;;;;26.80;24.60;;;;;;;;5289030;28;8772;-71
2022/07/02 14:18:09;;;;;;;;;26.60;26.60;;;;;;;;5271125;28;8900;-71
2022/07/02 14:20:41;;;;;;;;;30.40;29.00;;;;;;;;5288827;28;9587;-71
2022/07/02 14:23:15;;;;;;;;;30.20;28.00;;;;;;;;5254292;28;8777;-72
2022/07/02 14:25:45;;;;;;;;;29.25;28.00;;;;;;;;5270580;28;9547;-71
2022/07/02 14:28:38;;;;;;;;;19.00;19.00;;;;;;;;5288954;28;9514;-71
2022/07/02 14:31:09;;;;;;;;;18.50;18.50;;;;;;;;5270350;28;8766;-71
2022/07/02 14:33:40;;;;;;;;;19.25;19.00;;;;;;;;5270629;28;8832;-72
2022/07/02 14:36:14;;;;;;;;;17.00;17.00;;;;;;;;5270823;28;8774;-72
2022/07/02 14:38:45;;;;;;;;;13.67;13.67;;;;;;;;5253501;28;8809;-72
2022/07/02 14:41:35;;;;;;;;;7.25;7.25;;;;;;;;5269696;28;11413;-73
2022/07/02 14:44:06;;;;;;;;;11.25;11.25;;;;;;;;5288285;28;8872;-72
2022/07/02 14:46:37;;;;;;;;;53.00;41.80;;;;;;;;5289345;28;8778;-72
2022/07/02 14:49:08;;;;;;;;;26.25;26.25;;;;;;;;5275010;28;8762;-71
2022/07/02 14:51:39;;;;;;;;;19.33;19.33;;;;;;;;5280307;28;8966;-71
2022/07/02 14:54:10;;;;;;;;;32.40;31.20;;;;;;;;5282448;28;9940;-71
2022/07/02 14:56:41;;;;;;;;;13.00;13.00;;;;;;;;5263656;28;8778;-72
2022/07/02 14:59:14;;;;;;;;;19.40;19.40;;;;;;;;5272113;28;8778;-72
2022/07/02 15:01:46;;;;;;;;;12.00;12.00;;;;;;;;5270247;28;8777;-72
2022/07/02 15:04:17;;;;;;;;;15.00;14.50;;;;;;;;5270923;28;8806;-72
2022/07/02 15:06:48;;;;;;;;;42.25;34.75;;;;;;;;5253189;28;8778;-71
2022/07/02 15:09:19;;;;;;;;;22.25;21.00;;;;;;;;5270052;28;10742;-72
2022/07/02 15:12:09;;;;;;;;;42.20;36.60;;;;;;;;5256041;28;8758;-72
2022/07/02 15:17:34;;;;;;;;;12.25;12.25;;;;;;;;5270466;28;8781;-72
2022/07/02 15:20:06;;;;;;;;;10.75;9.50;;;;;;;;5253045;28;8806;-72
2022/07/02 15:22:45;;;;;;;;;13.25;12.75;;;;;;;;5253127;28;8773;-72
2022/07/02 15:25:21;;;;;;;;;16.00;14.25;;;;;;;;5236595;28;8785;-72
2022/07/02 15:27:54;;;;;;;;;17.75;16.00;;;;;;;;5236136;28;8902;-72
2022/07/02 15:30:29;;;;;;;;;12.00;12.00;;;;;;;;5253145;28;8793;-71
2022/07/02 15:33:20;;;;;;;;;12.50;12.50;;;;;;;;5287777;28;8801;-71
2022/07/02 15:35:52;;;;;;;;;18.50;18.00;;;;;;;;5269779;28;8750;-71
2022/07/02 15:38:25;;;;;;;;;14.75;13.75;;;;;;;;5269743;28;8773;-71
2022/07/02 15:40:57;;;;;;;;;18.75;17.50;;;;;;;;5252885;28;8835;-71
2022/07/02 15:43:48;;;;;;;;;17.75;17.00;;;;;;;;5287683;28;8777;-71
2022/07/02 15:46:23;;;;;;;;;15.25;13.75;;;;;;;;5252778;28;9587;-71
2022/07/02 15:48:55;;;;;;;;;11.00;11.00;;;;;;;;5288180;28;8794;-72
2022/07/02 15:51:31;;;;;;;;;13.50;12.50;;;;;;;;5288036;28;8782;-71
2022/07/02 15:54:21;;;;;;;;;17.50;16.75;;;;;;;;5269339;28;8786;-71